Time;durP1;ratioP1;P1;durP2;ratioP2;P2;SDS_P1;SDS_P2;PMS_P1;PMS_P2;Temp;Humidity;BMP_temperature;BMP_pressure;BME280_temperature;BME280_humidity;BME280_pressure;Samples;Min_cycle;Max_cycle;Signal;HPM_P1;HPM_P2
2021/09/17 00:00:06;;;;;;;;;;;;;;;23.88;65.58;99923.56;2060537;28;19939;-65
2021/09/17 00:01:06;;;;;;;;;;;;;;;23.89;65.61;99921.69;2061851;28;19975;-66
2021/09/17 00:02:07;;;;;;;;;;;;;;;23.89;65.55;99928.06;2060086;28;19967;-65
2021/09/17 00:03:07;;;;;;;;;;;;;;;23.89;65.55;99925.31;2063976;28;19912;-65
2021/09/17 00:04:08;;;;;;;;;;;;;;;23.87;65.57;99921.03;2066594;28;19913;-66
2021/09/17 00:05:09;;;;;;;;;;;;;;;23.87;65.54;99913.63;2067690;28;20044;-66
2021/09/17 00:06:09;;;;;;;;;;;;;;;23.88;65.57;99926.31;2064293;28;19921;-66
2021/09/17 00:07:09;;;;;;;;;;;;;;;23.88;65.65;99920.81;2060151;28;20376;-66
2021/09/17 00:08:10;;;;;;;;;;;;;;;23.89;65.53;99918.94;2064035;28;19909;-66
2021/09/17 00:09:10;;;;;;;;;;;;;;;23.88;65.67;99923.56;2068294;28;19952;-65
2021/09/17 00:10:12;;;;;;;;;;;;;;;23.87;65.60;99919.13;2066407;28;19909;-65
2021/09/17 00:11:12;;;;;;;;;;;;;;;23.88;65.52;99923.56;2065114;28;19917;-67
2021/09/17 00:12:12;;;;;;;;;;;;;;;23.88;65.59;99923.56;2060827;28;20010;-66
2021/09/17 00:13:13;;;;;;;;;;;;;;;23.88;65.52;99920.81;2065789;28;19967;-67
2021/09/17 00:14:13;;;;;;;;;;;;;;;23.86;65.48;99920.19;2066430;28;19921;-67
2021/09/17 00:15:14;;;;;;;;;;;;;;;23.87;65.60;99913.63;2063509;28;20650;-66
2021/09/17 00:16:14;;;;;;;;;;;;;;;23.87;65.52;99921.88;2065415;28;19924;-67
2021/09/17 00:17:15;;;;;;;;;;;;;;;23.87;65.52;99921.88;2067220;28;19916;-67
2021/09/17 00:18:15;;;;;;;;;;;;;;;23.87;65.51;99921.88;2065669;28;19928;-67
2021/09/17 00:19:15;;;;;;;;;;;;;;;23.88;65.56;99926.31;2060741;28;19940;-66
2021/09/17 00:20:16;;;;;;;;;;;;;;;23.86;65.45;99920.19;2067969;28;19924;-66
2021/09/17 00:21:16;;;;;;;;;;;;;;;23.86;65.60;99920.19;2066461;28;19909;-67
2021/09/17 00:22:16;;;;;;;;;;;;;;;23.87;65.51;99919.13;2061952;28;19962;-65
2021/09/17 00:23:17;;;;;;;;;;;;;;;23.87;65.66;99921.03;2065151;28;19956;-67
2021/09/17 00:24:17;;;;;;;;;;;;;;;23.86;65.53;99914.66;2066898;28;19913;-66
2021/09/17 00:25:17;;;;;;;;;;;;;;;23.86;65.48;99920.19;2064908;28;20427;-67
2021/09/17 00:26:18;;;;;;;;;;;;;;;23.88;65.56;99917.22;2066553;28;20710;-67
2021/09/17 00:27:18;;;;;;;;;;;;;;;23.86;65.58;99914.66;2064186;28;19916;-67
2021/09/17 00:28:19;;;;;;;;;;;;;;;23.86;65.45;99908.28;2065273;28;20014;-67
2021/09/17 00:29:19;;;;;;;;;;;;;;;23.87;65.53;99912.78;2062141;28;19925;-67
2021/09/17 00:30:19;;;;;;;;;;;;;;;23.86;65.47;99909.16;2063108;28;19921;-66
2021/09/17 00:31:20;;;;;;;;;;;;;;;23.86;65.61;99906.41;2063320;28;19971;-67
2021/09/17 00:32:20;;;;;;;;;;;;;;;23.86;65.45;99911.91;2066506;28;19917;-67
2021/09/17 00:33:20;;;;;;;;;;;;;;;23.86;65.55;99905.53;2064243;28;19924;-67
2021/09/17 00:34:21;;;;;;;;;;;;;;;23.85;65.54;99904.69;2060151;28;19929;-67
2021/09/17 00:35:21;;;;;;;;;;;;;;;23.86;65.58;99905.53;2061995;28;20012;-67
2021/09/17 00:36:21;;;;;;;;;;;;;;;23.84;65.60;99903.00;2060861;28;19959;-67
2021/09/17 00:37:21;;;;;;;;;;;;;;;23.85;65.55;99896.44;2066862;28;19951;-67
2021/09/17 00:38:22;;;;;;;;;;;;;;;23.85;65.57;99901.94;2065330;28;19944;-67
2021/09/17 00:39:22;;;;;;;;;;;;;;;23.85;65.60;99893.69;2067601;28;19928;-67
2021/09/17 00:40:23;;;;;;;;;;;;;;;23.85;65.53;99898.34;2066296;28;19967;-67
2021/09/17 00:41:23;;;;;;;;;;;;;;;23.85;65.51;99896.44;2067381;28;20525;-67
2021/09/17 00:42:23;;;;;;;;;;;;;;;23.85;65.56;99892.81;2065276;28;20015;-67
2021/09/17 00:43:24;;;;;;;;;;;;;;;23.84;65.58;99897.47;2068418;28;20007;-67
2021/09/17 00:44:25;;;;;;;;;;;;;;;23.84;65.49;99894.72;2067303;28;19913;-65
2021/09/17 00:45:26;;;;;;;;;;;;;;;23.84;65.60;99894.72;2064844;28;19913;-66
2021/09/17 00:46:26;;;;;;;;;;;;;;;23.84;65.55;99894.72;2065809;28;19940;-66
2021/09/17 00:47:26;;;;;;;;;;;;;;;23.85;65.48;99890.91;2064949;28;20426;-66
2021/09/17 00:48:26;;;;;;;;;;;;;;;23.85;65.59;99890.06;2063279;28;19940;-65
2021/09/17 00:49:27;;;;;;;;;;;;;;;23.83;65.54;99876.47;2065242;28;19917;-65
2021/09/17 00:50:27;;;;;;;;;;;;;;;23.84;65.69;99886.47;2068799;28;19960;-66
2021/09/17 00:51:27;;;;;;;;;;;;;;;23.84;65.57;99886.47;2066347;28;20307;-65
2021/09/17 00:52:28;;;;;;;;;;;;;;;23.84;65.55;99880.97;2068895;28;19912;-66
2021/09/17 00:53:33;;;;;;;;;;;;;;;23.84;65.53;99871.84;2066174;28;19957;-66
2021/09/17 00:54:34;;;;;;;;;;;;;;;23.84;65.59;99871.84;2066450;28;20003;-66
2021/09/17 00:55:34;;;;;;;;;;;;;;;23.83;65.56;99873.72;2067073;28;19923;-66
2021/09/17 00:56:35;;;;;;;;;;;;;;;23.84;65.50;99867.19;2068795;28;19996;-66
2021/09/17 00:57:36;;;;;;;;;;;;;;;23.83;65.61;99867.38;2066253;28;20136;-66
2021/09/17 00:58:36;;;;;;;;;;;;;;;23.84;65.53;99869.97;2065981;28;20287;-66
2021/09/17 00:59:37;;;;;;;;;;;;;;;23.83;65.61;99867.38;2067909;28;19913;-66
2021/09/17 01:00:37;;;;;;;;;;;;;;;23.83;65.57;99870.97;2066514;28;19913;-66
2021/09/17 01:01:39;;;;;;;;;;;;;;;23.83;65.50;99865.47;2067816;28;19959;-65
2021/09/17 01:02:40;;;;;;;;;;;;;;;23.83;65.61;99865.47;2066135;28;20009;-66
2021/09/17 01:03:40;;;;;;;;;;;;;;;23.83;65.50;99870.13;2066878;28;19928;-66
2021/09/17 01:04:41;;;;;;;;;;;;;;;23.83;65.63;99865.47;2065751;28;19919;-65
2021/09/17 01:05:41;;;;;;;;;;;;;;;23.82;65.59;99863.78;2064354;28;19968;-66
2021/09/17 01:06:43;;;;;;;;;;;;;;;23.84;65.51;99860.84;2061560;28;20484;-66
2021/09/17 01:07:44;;;;;;;;;;;;;;;23.83;65.56;99862.72;2061402;28;20317;-65
2021/09/17 01:08:44;;;;;;;;;;;;;;;23.82;65.62;99852.78;2066193;28;19924;-66
2021/09/17 01:09:45;;;;;;;;;;;;;;;23.82;65.57;99847.25;2061373;28;19910;-65
2021/09/17 01:10:46;;;;;;;;;;;;;;;23.82;65.56;99851.91;2061206;28;19947;-66
2021/09/17 01:11:46;;;;;;;;;;;;;;;23.82;65.56;99847.25;2068011;28;19974;-65
2021/09/17 01:12:47;;;;;;;;;;;;;;;23.81;65.57;99851.03;2064066;28;19912;-65
2021/09/17 01:13:47;;;;;;;;;;;;;;;23.81;65.64;99840.03;2066396;28;19916;-66
2021/09/17 01:14:47;;;;;;;;;;;;;;;23.81;65.54;99842.78;2066691;28;19990;-65
2021/09/17 01:15:48;;;;;;;;;;;;;;;23.82;65.59;99841.75;2067334;28;19913;-66
2021/09/17 01:16:48;;;;;;;;;;;;;;;23.81;65.55;99840.03;2067126;28;20548;-65
2021/09/17 01:17:48;;;;;;;;;;;;;;;23.81;65.47;99840.03;2065623;28;20634;-66
2021/09/17 01:18:52;;;;;;;;;;;;;;;23.82;65.58;99847.25;2065754;28;19920;-66
2021/09/17 01:19:52;;;;;;;;;;;;;;;23.81;65.54;99840.03;2064974;28;20023;-66
2021/09/17 01:20:59;;;;;;;;;;;;;;;23.81;65.60;99837.28;2067214;28;19909;-66
2021/09/17 01:22:01;;;;;;;;;;;;;;;23.81;65.52;99834.53;2065292;28;20355;-66
2021/09/17 01:23:02;;;;;;;;;;;;;;;23.81;65.60;99837.28;2062876;28;19917;-65
2021/09/17 01:24:02;;;;;;;;;;;;;;;23.82;65.57;99835.41;2063143;28;19917;-66
2021/09/17 01:25:04;;;;;;;;;;;;;;;23.81;65.58;99834.53;2064189;28;19909;-65
2021/09/17 01:26:05;;;;;;;;;;;;;;;23.81;65.51;99837.28;2065390;28;19947;-65
2021/09/17 01:27:06;;;;;;;;;;;;;;;23.81;65.50;99834.53;2062422;28;19913;-66
2021/09/17 01:28:06;;;;;;;;;;;;;;;23.82;65.55;99840.91;2065919;28;19909;-66
2021/09/17 01:29:06;;;;;;;;;;;;;;;23.81;65.54;99834.53;2066642;28;20408;-66
2021/09/17 01:30:07;;;;;;;;;;;;;;;23.81;65.65;99829.03;2064468;28;19921;-66
2021/09/17 01:31:08;;;;;;;;;;;;;;;23.81;65.51;99828.19;2066684;28;19913;-65
2021/09/17 01:32:08;;;;;;;;;;;;;;;23.81;65.55;99834.53;2064974;28;20777;-66
2021/09/17 01:33:09;;;;;;;;;;;;;;;23.81;65.60;99829.03;2065945;28;20307;-66
2021/09/17 01:34:09;;;;;;;;;;;;;;;23.81;65.59;99834.53;2059689;28;19913;-66
2021/09/17 01:35:11;;;;;;;;;;;;;;;23.81;65.48;99829.03;2061641;28;19913;-65
2021/09/17 01:36:11;;;;;;;;;;;;;;;23.80;65.63;99824.56;2062710;28;19921;-65
2021/09/17 01:37:12;;;;;;;;;;;;;;;23.81;65.51;99820.75;2067579;28;19939;-66
2021/09/17 01:38:12;;;;;;;;;;;;;;;23.80;65.53;99819.06;2065831;28;19917;-66
2021/09/17 01:39:12;;;;;;;;;;;;;;;23.80;65.51;99819.06;2065668;28;20400;-66
2021/09/17 01:40:13;;;;;;;;;;;;;;;23.80;65.57;99821.81;2065750;28;19948;-66
2021/09/17 01:41:13;;;;;;;;;;;;;;;23.80;65.57;99815.47;2062147;28;19917;-65
2021/09/17 01:42:14;;;;;;;;;;;;;;;23.80;65.71;99816.31;2067967;28;19974;-66
2021/09/17 01:43:14;;;;;;;;;;;;;;;23.80;65.57;99810.81;2066071;28;19968;-66
2021/09/17 01:44:14;;;;;;;;;;;;;;;23.80;65.54;99818.22;2068030;28;20341;-66
2021/09/17 01:45:15;;;;;;;;;;;;;;;23.79;65.54;99809.13;2066750;28;20685;-66
2021/09/17 01:46:15;;;;;;;;;;;;;;;23.80;65.59;99809.97;2067131;28;19913;-66
2021/09/17 01:47:15;;;;;;;;;;;;;;;23.80;65.62;99815.47;2067039;28;19913;-66
2021/09/17 01:48:16;;;;;;;;;;;;;;;23.80;65.65;99815.47;2066368;28;19919;-66
2021/09/17 01:49:16;;;;;;;;;;;;;;;23.79;65.54;99814.63;2066407;28;19916;-66
2021/09/17 01:50:17;;;;;;;;;;;;;;;23.80;65.60;99810.81;2064023;28;19919;-66
2021/09/17 01:51:17;;;;;;;;;;;;;;;23.79;65.52;99814.63;2066712;28;19920;-66
2021/09/17 01:52:17;;;;;;;;;;;;;;;23.80;65.49;99809.97;2068185;28;19917;-66
2021/09/17 01:53:18;;;;;;;;;;;;;;;23.79;65.60;99809.13;2065118;28;20022;-66
2021/09/17 01:54:18;;;;;;;;;;;;;;;23.79;65.52;99811.88;2066685;28;19967;-65
2021/09/17 01:55:18;;;;;;;;;;;;;;;23.79;65.62;99806.38;2067071;28;19917;-66
2021/09/17 01:56:21;;;;;;;;;;;;;;;23.79;65.61;99811.88;2065395;28;19921;-66
2021/09/17 01:57:21;;;;;;;;;;;;;;;23.79;65.50;99814.63;2061370;28;19913;-65
2021/09/17 01:58:22;;;;;;;;;;;;;;;23.78;65.54;99801.88;2064253;28;19925;-66
2021/09/17 01:59:22;;;;;;;;;;;;;;;23.78;65.62;99807.38;2066262;28;19978;-66
2021/09/17 02:00:22;;;;;;;;;;;;;;;23.80;65.54;99801.72;2066109;28;19979;-66
2021/09/17 02:01:23;;;;;;;;;;;;;;;23.79;65.65;99800.84;2061599;28;19914;-66
2021/09/17 02:02:23;;;;;;;;;;;;;;;23.79;65.44;99803.59;2067761;28;19912;-66
2021/09/17 02:03:24;;;;;;;;;;;;;;;23.78;65.51;99807.38;2066513;28;20252;-66
2021/09/17 02:04:24;;;;;;;;;;;;;;;23.78;65.53;99804.63;2059784;28;20409;-66
2021/09/17 02:05:25;;;;;;;;;;;;;;;23.78;65.57;99796.38;2065579;28;20090;-65
2021/09/17 02:06:25;;;;;;;;;;;;;;;23.79;65.63;99803.59;2066291;28;20306;-66
2021/09/17 02:07:25;;;;;;;;;;;;;;;23.77;65.55;99800.19;2067076;28;19916;-66
2021/09/17 02:08:26;;;;;;;;;;;;;;;23.79;65.60;99802.72;2066091;28;20350;-66
2021/09/17 02:09:26;;;;;;;;;;;;;;;23.79;65.60;99800.84;2067125;28;20148;-66
2021/09/17 02:10:27;;;;;;;;;;;;;;;23.78;65.60;99790.88;2066348;28;19913;-66
2021/09/17 02:11:27;;;;;;;;;;;;;;;23.78;65.63;99790.88;2066862;28;19920;-66
2021/09/17 02:12:27;;;;;;;;;;;;;;;23.78;65.65;99790.88;2067042;28;20380;-66
2021/09/17 02:13:28;;;;;;;;;;;;;;;23.78;65.60;99784.53;2066729;28;19924;-66
2021/09/17 02:14:28;;;;;;;;;;;;;;;23.78;65.59;99792.78;2067040;28;19916;-66
2021/09/17 02:15:28;;;;;;;;;;;;;;;23.76;65.61;99781.94;2063807;28;19909;-66
2021/09/17 02:16:29;;;;;;;;;;;;;;;23.77;65.56;99780.91;2066208;28;20935;-66
2021/09/17 02:17:31;;;;;;;;;;;;;;;23.77;65.68;99778.16;2066453;28;19931;-66
2021/09/17 02:18:31;;;;;;;;;;;;;;;23.78;65.59;99782.63;2065574;28;20303;-66
2021/09/17 02:19:31;;;;;;;;;;;;;;;23.78;65.75;99785.38;2065687;28;19948;-66
2021/09/17 02:20:32;;;;;;;;;;;;;;;23.77;65.55;99778.16;2065293;28;19913;-66
2021/09/17 02:21:32;;;;;;;;;;;;;;;23.77;65.60;99783.69;2066568;28;20329;-66
2021/09/17 02:22:34;;;;;;;;;;;;;;;23.77;65.42;99780.91;2065769;28;20430;-66
2021/09/17 02:23:34;;;;;;;;;;;;;;;23.77;65.46;99778.16;2065226;28;19916;-66
2021/09/17 02:24:34;;;;;;;;;;;;;;;23.77;65.57;99780.91;2066872;28;19917;-66
2021/09/17 02:25:35;;;;;;;;;;;;;;;23.76;65.61;99773.69;2063626;28;19924;-66
2021/09/17 02:26:35;;;;;;;;;;;;;;;23.76;65.54;99770.94;2064660;28;19917;-66
2021/09/17 02:27:35;;;;;;;;;;;;;;;23.76;65.65;99773.69;2065220;28;19917;-66
2021/09/17 02:28:35;;;;;;;;;;;;;;;23.77;65.62;99778.16;2067815;28;19948;-66
2021/09/17 02:29:36;;;;;;;;;;;;;;;23.77;65.61;99772.66;2065774;28;20547;-65
2021/09/17 02:30:36;;;;;;;;;;;;;;;23.76;65.70;99770.94;2066890;28;19959;-64
2021/09/17 02:31:37;;;;;;;;;;;;;;;23.76;65.58;99770.94;2067217;28;20379;-65
2021/09/17 02:32:37;;;;;;;;;;;;;;;23.77;65.65;99767.16;2071701;28;21079;-65
2021/09/17 02:33:38;;;;;;;;;;;;;;;23.77;65.62;99772.66;2065950;28;19919;-65
2021/09/17 02:34:38;;;;;;;;;;;;;;;23.76;65.56;99770.94;2062421;28;19917;-65
2021/09/17 02:35:38;;;;;;;;;;;;;;;23.77;65.61;99766.31;2062860;28;20008;-65
2021/09/17 02:36:38;;;;;;;;;;;;;;;23.75;65.56;99764.59;2061396;28;19913;-66
2021/09/17 02:37:39;;;;;;;;;;;;;;;23.75;65.68;99764.59;2062561;28;19920;-65
2021/09/17 02:38:40;;;;;;;;;;;;;;;23.75;65.56;99759.09;2066630;28;19917;-66
2021/09/17 02:39:41;;;;;;;;;;;;;;;23.75;65.63;99761.84;2066806;28;19916;-66
2021/09/17 02:40:41;;;;;;;;;;;;;;;23.75;65.57;99763.75;2068689;28;20279;-66
2021/09/17 02:41:42;;;;;;;;;;;;;;;23.75;65.56;99756.34;2065381;28;19952;-66
2021/09/17 02:42:43;;;;;;;;;;;;;;;23.76;65.63;99765.44;2069498;28;19917;-66
2021/09/17 02:43:44;;;;;;;;;;;;;;;23.76;65.65;99759.94;2068150;28;19921;-66
2021/09/17 02:44:44;;;;;;;;;;;;;;;23.76;65.55;99757.19;2066738;28;20459;-67
2021/09/17 02:45:45;;;;;;;;;;;;;;;23.75;65.55;99759.09;2069486;28;20290;-66
2021/09/17 02:46:45;;;;;;;;;;;;;;;23.75;65.63;99755.47;2067767;28;19924;-66
2021/09/17 02:47:45;;;;;;;;;;;;;;;23.74;65.71;99757.38;2068367;28;19966;-66
2021/09/17 02:48:46;;;;;;;;;;;;;;;23.75;65.60;99753.56;2066580;28;19905;-66
2021/09/17 02:49:46;;;;;;;;;;;;;;;23.75;65.66;99758.22;2061851;28;20254;-66
2021/09/17 02:50:46;;;;;;;;;;;;;;;23.75;65.55;99753.56;2063156;28;20296;-66
2021/09/17 02:51:47;;;;;;;;;;;;;;;23.74;65.52;99746.38;2067984;28;20771;-66
2021/09/17 02:52:47;;;;;;;;;;;;;;;23.75;65.62;99747.22;2066913;28;20419;-65
2021/09/17 02:53:47;;;;;;;;;;;;;;;23.74;65.60;99751.03;2062017;28;20318;-66
2021/09/17 02:54:48;;;;;;;;;;;;;;;23.75;65.53;99749.97;2064547;28;20759;-66
2021/09/17 02:55:48;;;;;;;;;;;;;;;23.75;65.61;99747.22;2069084;28;20445;-66
2021/09/17 02:56:48;;;;;;;;;;;;;;;23.74;65.62;99749.13;2067107;28;19960;-66
2021/09/17 02:57:49;;;;;;;;;;;;;;;23.74;65.60;99745.53;2068095;28;19916;-66
2021/09/17 02:58:49;;;;;;;;;;;;;;;23.75;65.62;99747.22;2068299;28;19912;-65
2021/09/17 02:59:49;;;;;;;;;;;;;;;23.74;65.57;99746.38;2067676;28;20004;-65
2021/09/17 03:00:49;;;;;;;;;;;;;;;23.74;65.54;99743.63;2068834;28;19958;-65
2021/09/17 03:01:50;;;;;;;;;;;;;;;23.74;65.58;99745.53;2063227;28;19921;-65
2021/09/17 03:02:50;;;;;;;;;;;;;;;23.74;65.61;99742.78;2061861;28;19917;-65
2021/09/17 03:03:50;;;;;;;;;;;;;;;23.72;65.60;99737.41;2061365;28;19920;-65
2021/09/17 03:04:51;;;;;;;;;;;;;;;23.73;65.55;99735.56;2062655;28;19940;-66
2021/09/17 03:05:51;;;;;;;;;;;;;;;23.73;65.53;99744.66;2058837;28;20368;-65
2021/09/17 03:06:53;;;;;;;;;;;;;;;23.73;65.59;99738.31;2064326;28;20327;-66
2021/09/17 03:07:53;;;;;;;;;;;;;;;23.73;65.59;99739.16;2061028;28;19909;-65
2021/09/17 03:08:53;;;;;;;;;;;;;;;23.74;65.61;99742.78;2066796;28;20016;-66
2021/09/17 03:09:54;;;;;;;;;;;;;;;23.73;65.52;99741.91;2068721;28;19913;-66
2021/09/17 03:10:57;;;;;;;;;;;;;;;23.74;65.68;99740.03;2067443;28;19959;-66
2021/09/17 03:11:57;;;;;;;;;;;;;;;23.73;65.61;99739.16;2067358;28;20007;-65
2021/09/17 03:12:59;;;;;;;;;;;;;;;23.73;65.53;99738.31;2068315;28;19913;-66
2021/09/17 03:13:59;;;;;;;;;;;;;;;23.72;65.56;99742.91;2066722;28;20770;-65
2021/09/17 03:15:00;;;;;;;;;;;;;;;23.73;65.68;99743.81;2066117;28;19913;-66
2021/09/17 03:16:02;;;;;;;;;;;;;;;23.73;65.56;99749.31;2067310;28;20000;-66
2021/09/17 03:17:02;;;;;;;;;;;;;;;23.72;65.54;99740.16;2066583;28;19920;-65
2021/09/17 03:18:03;;;;;;;;;;;;;;;23.72;65.62;99739.31;2068153;28;19911;-66
2021/09/17 03:19:03;;;;;;;;;;;;;;;23.73;65.68;99738.31;2066547;28;20398;-66
2021/09/17 03:20:04;;;;;;;;;;;;;;;23.73;65.67;99738.31;2066478;28;19913;-66
2021/09/17 03:21:04;;;;;;;;;;;;;;;23.73;65.64;99743.81;2068512;28;19912;-66
2021/09/17 03:22:05;;;;;;;;;;;;;;;23.72;65.57;99740.16;2065893;28;20016;-66
2021/09/17 03:23:05;;;;;;;;;;;;;;;23.73;65.59;99738.31;2066681;28;19921;-66
2021/09/17 03:24:05;;;;;;;;;;;;;;;23.74;65.57;99745.53;2066362;28;20305;-66
2021/09/17 03:25:06;;;;;;;;;;;;;;;23.72;65.60;99739.31;2067432;28;20279;-66
2021/09/17 03:26:06;;;;;;;;;;;;;;;23.73;65.53;99743.81;2067845;28;20621;-66
2021/09/17 03:27:06;;;;;;;;;;;;;;;23.72;65.61;99742.06;2067171;28;19916;-66
2021/09/17 03:28:07;;;;;;;;;;;;;;;23.72;65.66;99736.56;2068234;28;19913;-66
2021/09/17 03:29:07;;;;;;;;;;;;;;;23.72;65.66;99745.69;2066068;28;19919;-66
2021/09/17 03:30:08;;;;;;;;;;;;;;;23.71;65.60;99743.97;2069055;28;20295;-66
2021/09/17 03:31:08;;;;;;;;;;;;;;;23.71;65.61;99745.84;2066381;28;19920;-66
2021/09/17 03:32:09;;;;;;;;;;;;;;;23.72;65.54;99733.81;2069029;28;19951;-66
2021/09/17 03:33:11;;;;;;;;;;;;;;;23.72;65.58;99744.81;2066936;28;19988;-66
2021/09/17 03:34:11;;;;;;;;;;;;;;;23.71;65.67;99740.34;2067199;28;19920;-66
2021/09/17 03:35:11;;;;;;;;;;;;;;;23.72;65.65;99744.81;2064556;28;19948;-65
2021/09/17 03:36:12;;;;;;;;;;;;;;;23.71;65.73;99743.97;2064859;28;19916;-66
2021/09/17 03:37:12;;;;;;;;;;;;;;;23.72;65.61;99745.69;2067935;28;20668;-66
2021/09/17 03:38:13;;;;;;;;;;;;;;;23.72;65.64;99737.41;2067695;28;19913;-65
2021/09/17 03:39:14;;;;;;;;;;;;;;;23.72;65.58;99736.56;2066742;28;20156;-67
2021/09/17 03:40:14;;;;;;;;;;;;;;;23.71;65.69;99738.47;2065362;28;20335;-66
2021/09/17 03:41:14;;;;;;;;;;;;;;;23.71;65.66;99735.72;2063565;28;20737;-66
2021/09/17 03:42:14;;;;;;;;;;;;;;;23.71;65.67;99735.72;2062784;28;19924;-66
2021/09/17 03:43:15;;;;;;;;;;;;;;;23.71;65.59;99729.34;2066188;28;19912;-66
2021/09/17 03:44:16;;;;;;;;;;;;;;;23.70;65.67;99727.66;2067137;28;20608;-66
2021/09/17 03:45:17;;;;;;;;;;;;;;;23.71;65.63;99737.59;2066545;28;19901;-66
2021/09/17 03:46:17;;;;;;;;;;;;;;;23.71;65.66;99732.97;2064749;28;19916;-66
2021/09/17 03:47:17;;;;;;;;;;;;;;;23.71;65.66;99734.84;2068467;28;19948;-66
2021/09/17 03:48:17;;;;;;;;;;;;;;;23.70;65.61;99731.25;2074217;28;19908;-66
2021/09/17 03:49:18;;;;;;;;;;;;;;;23.71;65.61;99732.09;2070345;28;20272;-66
2021/09/17 03:50:18;;;;;;;;;;;;;;;23.70;65.62;99731.25;2068126;28;19915;-66
2021/09/17 03:51:19;;;;;;;;;;;;;;;23.70;65.60;99734.00;2066561;28;19991;-66
2021/09/17 03:52:19;;;;;;;;;;;;;;;23.71;65.59;99734.84;2068427;28;19919;-65
2021/09/17 03:53:19;;;;;;;;;;;;;;;23.70;65.70;99728.50;2063860;28;20430;-66
2021/09/17 03:54:26;;;;;;;;;;;;;;;23.71;65.69;99732.09;2066793;28;20528;-66
2021/09/17 03:55:26;;;;;;;;;;;;;;;23.70;65.52;99728.50;2065535;28;19912;-66
2021/09/17 03:56:26;;;;;;;;;;;;;;;23.70;65.66;99730.41;2064850;28;20426;-66
2021/09/17 03:57:27;;;;;;;;;;;;;;;23.70;65.66;99733.16;2064894;28;19917;-66
2021/09/17 03:58:27;;;;;;;;;;;;;;;23.70;65.66;99733.16;2065674;28;20403;-66
2021/09/17 03:59:27;;;;;;;;;;;;;;;23.70;65.60;99733.16;2064584;28;19920;-66
2021/09/17 04:00:28;;;;;;;;;;;;;;;23.70;65.66;99724.91;2067800;28;19916;-66
2021/09/17 04:01:28;;;;;;;;;;;;;;;23.70;65.67;99731.25;2063071;28;19917;-66
2021/09/17 04:02:28;;;;;;;;;;;;;;;23.70;65.61;99722.16;2065157;28;19913;-65
2021/09/17 04:03:28;;;;;;;;;;;;;;;23.71;65.57;99726.59;2068534;28;19916;-66
2021/09/17 04:04:29;;;;;;;;;;;;;;;23.70;65.60;99723.00;2059824;28;19940;-65
2021/09/17 04:05:29;;;;;;;;;;;;;;;23.69;65.56;99720.41;2067564;28;19955;-66
2021/09/17 04:06:30;;;;;;;;;;;;;;;23.69;65.62;99720.41;2062011;28;19917;-66
2021/09/17 04:07:30;;;;;;;;;;;;;;;23.70;65.64;99727.66;2066291;28;20023;-66
2021/09/17 04:08:30;;;;;;;;;;;;;;;23.70;65.70;99727.66;2065018;28;20002;-66
2021/09/17 04:09:31;;;;;;;;;;;;;;;23.69;65.60;99726.81;2063021;28;20071;-67
2021/09/17 04:10:31;;;;;;;;;;;;;;;23.69;65.68;99729.56;2073253;28;20262;-66
2021/09/17 04:11:31;;;;;;;;;;;;;;;23.69;65.63;99723.16;2069139;28;19955;-66
2021/09/17 04:12:32;;;;;;;;;;;;;;;23.69;65.61;99729.56;2064632;28;19913;-66
2021/09/17 04:13:32;;;;;;;;;;;;;;;23.69;65.62;99726.81;2066167;28;19913;-67
2021/09/17 04:14:33;;;;;;;;;;;;;;;23.69;65.67;99728.66;2066732;28;19913;-66
2021/09/17 04:15:33;;;;;;;;;;;;;;;23.70;65.61;99727.66;2065774;28;19924;-66
2021/09/17 04:16:33;;;;;;;;;;;;;;;23.70;65.63;99722.16;2066360;28;20007;-66
2021/09/17 04:17:33;;;;;;;;;;;;;;;23.69;65.63;99731.41;2069152;28;19990;-66
2021/09/17 04:18:34;;;;;;;;;;;;;;;23.69;65.57;99723.16;2065390;28;19920;-66
2021/09/17 04:19:36;;;;;;;;;;;;;;;23.68;65.61;99722.31;2068362;28;19948;-66
2021/09/17 04:20:37;;;;;;;;;;;;;;;23.68;65.64;99725.06;2066170;28;19920;-66
2021/09/17 04:21:37;;;;;;;;;;;;;;;23.69;65.65;99728.66;2067380;28;19909;-66
2021/09/17 04:22:38;;;;;;;;;;;;;;;23.69;65.70;99728.66;2066186;28;19920;-66
2021/09/17 04:23:38;;;;;;;;;;;;;;;23.69;65.63;99731.41;2065632;28;19950;-66
2021/09/17 04:24:38;;;;;;;;;;;;;;;23.69;65.57;99734.19;2067361;28;19963;-65
2021/09/17 04:25:39;;;;;;;;;;;;;;;23.69;65.64;99731.41;2066611;28;19920;-66
2021/09/17 04:26:39;;;;;;;;;;;;;;;23.68;65.60;99730.56;2067942;28;20411;-66
2021/09/17 04:27:43;;;;;;;;;;;;;;;23.68;65.62;99729.72;2066519;28;19920;-66
2021/09/17 04:28:44;;;;;;;;;;;;;;;23.67;65.67;99728.88;2069032;28;19921;-67
2021/09/17 04:29:44;;;;;;;;;;;;;;;23.68;65.58;99722.31;2062455;28;19917;-66
2021/09/17 04:30:44;;;;;;;;;;;;;;;23.68;65.57;99724.22;2059362;28;19916;-67
2021/09/17 04:31:45;;;;;;;;;;;;;;;23.69;65.68;99725.91;2060956;28;19996;-66
2021/09/17 04:32:45;;;;;;;;;;;;;;;23.68;65.68;99724.22;2063544;28;20766;-65
2021/09/17 04:33:45;;;;;;;;;;;;;;;23.68;65.63;99726.97;2068585;28;19953;-66
2021/09/17 04:34:45;;;;;;;;;;;;;;;23.68;65.55;99725.06;2066250;28;20750;-66
2021/09/17 04:35:46;;;;;;;;;;;;;;;23.68;65.60;99729.72;2067421;28;20287;-66
2021/09/17 04:36:46;;;;;;;;;;;;;;;23.67;65.70;99722.53;2066999;28;20094;-65
2021/09/17 04:37:48;;;;;;;;;;;;;;;23.67;65.54;99728.88;2066019;28;19917;-65
2021/09/17 04:38:48;;;;;;;;;;;;;;;23.68;65.64;99729.72;2068212;28;19921;-65
2021/09/17 04:39:48;;;;;;;;;;;;;;;23.67;65.74;99728.88;2065640;28;19924;-66
2021/09/17 04:40:48;;;;;;;;;;;;;;;23.67;65.69;99733.53;2066911;28;19959;-65
2021/09/17 04:41:49;;;;;;;;;;;;;;;23.66;65.71;99732.66;2066636;28;19920;-65
2021/09/17 04:42:49;;;;;;;;;;;;;;;23.67;65.61;99734.38;2066479;28;19916;-65
2021/09/17 04:43:50;;;;;;;;;;;;;;;23.67;65.72;99728.03;2067559;28;19924;-64
2021/09/17 04:44:50;;;;;;;;;;;;;;;23.67;65.66;99728.03;2064613;28;19986;-65
2021/09/17 04:45:50;;;;;;;;;;;;;;;23.67;65.63;99730.78;2064207;28;19917;-66
2021/09/17 04:46:51;;;;;;;;;;;;;;;23.67;65.64;99728.88;2064156;28;19956;-65
2021/09/17 04:47:51;;;;;;;;;;;;;;;23.67;65.71;99728.03;2064013;28;19913;-66
2021/09/17 04:48:51;;;;;;;;;;;;;;;23.68;65.71;99729.72;2066655;28;19920;-65
2021/09/17 04:49:51;;;;;;;;;;;;;;;23.67;65.66;99728.03;2066407;28;19967;-65
2021/09/17 04:50:52;;;;;;;;;;;;;;;23.66;65.70;99727.16;2065273;28;20382;-65
2021/09/17 04:51:52;;;;;;;;;;;;;;;23.67;65.66;99711.53;2067552;28;19916;-66
2021/09/17 04:52:52;;;;;;;;;;;;;;;23.67;65.66;99728.03;2066382;28;19971;-66
2021/09/17 04:53:53;;;;;;;;;;;;;;;23.66;65.71;99726.31;2067827;28;19917;-66
2021/09/17 04:54:53;;;;;;;;;;;;;;;23.66;65.70;99721.66;2065349;28;19905;-65
2021/09/17 04:55:53;;;;;;;;;;;;;;;23.66;65.68;99720.81;2066450;28;19917;-66
2021/09/17 04:56:54;;;;;;;;;;;;;;;23.66;65.72;99720.81;2066280;28;19915;-66
2021/09/17 04:57:54;;;;;;;;;;;;;;;23.65;65.69;99722.69;2065441;28;20865;-66
2021/09/17 04:58:54;;;;;;;;;;;;;;;23.66;65.60;99720.81;2067852;28;19920;-66
2021/09/17 04:59:55;;;;;;;;;;;;;;;23.66;65.63;99723.56;2065428;28;19913;-66
2021/09/17 05:00:55;;;;;;;;;;;;;;;23.65;65.56;99722.69;2067024;28;20705;-66
2021/09/17 05:01:55;;;;;;;;;;;;;;;23.66;65.72;99720.81;2065367;28;19932;-66
2021/09/17 05:02:55;;;;;;;;;;;;;;;23.66;65.72;99723.56;2065433;28;19920;-66
2021/09/17 05:03:56;;;;;;;;;;;;;;;23.66;65.73;99723.56;2061548;28;19905;-66
2021/09/17 05:04:56;;;;;;;;;;;;;;;23.66;65.72;99720.81;2061323;28;20820;-66
2021/09/17 05:05:56;;;;;;;;;;;;;;;23.66;65.72;99718.06;2059428;28;19921;-66
2021/09/17 05:06:57;;;;;;;;;;;;;;;23.66;65.65;99720.81;2063899;28;20430;-66
2021/09/17 05:07:57;;;;;;;;;;;;;;;23.66;65.71;99720.81;2066840;28;20381;-66
2021/09/17 05:08:58;;;;;;;;;;;;;;;23.66;65.63;99715.31;2067081;28;20007;-66
2021/09/17 05:09:58;;;;;;;;;;;;;;;23.65;65.69;99724.63;2066637;28;19919;-66
2021/09/17 05:10:59;;;;;;;;;;;;;;;23.64;65.67;99718.25;2064724;28;19920;-66
2021/09/17 05:11:59;;;;;;;;;;;;;;;23.65;65.65;99725.47;2065714;28;20767;-66
2021/09/17 05:12:59;;;;;;;;;;;;;;;23.66;65.72;99718.06;2069772;28;19913;-66
2021/09/17 05:14:00;;;;;;;;;;;;;;;23.66;65.83;99726.31;2066107;28;19943;-66
2021/09/17 05:15:00;;;;;;;;;;;;;;;23.65;65.64;99719.97;2066156;28;19920;-66